Time;durP1;ratioP1;P1;durP2;ratioP2;P2;SDS_P1;SDS_P2;PMS_P1;PMS_P2;Temp;Humidity;BMP_temperature;BMP_pressure;BME280_temperature;BME280_humidity;BME280_pressure;Samples;Min_cycle;Max_cycle;Signal;HPM_P1;HPM_P2
2021/10/19 00:00:15;;;;;;;48.67;27.77;;;281.70;2278.40;;;;;;5060337;28;20384;-77
2021/10/19 00:02:44;;;;;;;47.30;26.65;;;281.60;2278.40;;;;;;5076382;28;20024;-77
2021/10/19 00:05:11;;;;;;;49.80;28.08;;;281.60;2278.40;;;;;;5057548;28;20037;-77
2021/10/19 00:07:38;;;;;;;48.38;30.20;;;281.60;2278.40;;;;;;5075975;28;20024;-77
2021/10/19 00:10:06;;;;;;;52.00;29.13;;;281.60;2278.40;;;;;;5054185;28;20493;-78
2021/10/19 00:12:32;;;;;;;50.25;31.45;;;281.60;2278.40;;;;;;5056056;28;20025;-77
2021/10/19 00:14:57;;;;;;;66.00;33.00;;;281.60;2278.40;;;;;;5055860;28;20385;-77
2021/10/19 00:17:23;;;;;;;67.28;34.47;;;281.60;2278.40;;;;;;5054263;28;20126;-76
2021/10/19 00:19:49;;;;;;;56.55;31.35;;;281.60;2278.40;;;;;;5055667;28;20069;-75
2021/10/19 00:22:15;;;;;;;59.80;33.05;;;281.60;2278.40;;;;;;5054368;28;20028;-76
2021/10/19 00:24:41;;;;;;;54.75;32.15;;;256.90;2252.80;;;;;;5064960;28;20043;-77
2021/10/19 00:27:06;;;;;;;55.60;32.30;;;256.80;2252.80;;;;;;5075754;28;20384;-76
2021/10/19 00:29:32;;;;;;;59.60;31.15;;;256.80;2252.80;;;;;;5075734;28;20024;-76
2021/10/19 00:31:58;;;;;;;55.90;31.17;;;256.80;2252.80;;;;;;5075761;28;20028;-76
2021/10/19 00:34:24;;;;;;;52.90;31.58;;;256.80;2252.80;;;;;;5075672;28;20059;-77
2021/10/19 00:36:50;;;;;;;59.72;32.95;;;256.70;2252.80;;;;;;5075214;28;20052;-76
2021/10/19 00:39:16;;;;;;;52.75;31.80;;;256.60;2252.80;;;;;;5075422;28;20479;-76
2021/10/19 00:41:43;;;;;;;55.17;33.10;;;256.60;2252.80;;;;;;5074363;28;20024;-76
2021/10/19 00:44:09;;;;;;;51.58;31.90;;;256.60;2252.80;;;;;;5074121;28;20169;-77
2021/10/19 00:46:35;;;;;;;61.92;35.05;;;256.60;2252.80;;;;;;5075466;28;20016;-77
2021/10/19 00:49:01;;;;;;;53.80;33.22;;;256.60;2252.80;;;;;;5075227;28;20035;-76
2021/10/19 00:51:27;;;;;;;58.35;31.40;;;256.60;2252.80;;;;;;5075113;28;20025;-75
2021/10/19 00:53:53;;;;;;;57.75;31.88;;;256.50;2252.80;;;;;;5074907;28;20045;-76
2021/10/19 00:56:20;;;;;;;56.80;30.70;;;256.60;2252.80;;;;;;5070023;28;20406;-86
2021/10/19 00:58:46;;;;;;;62.10;35.70;;;256.40;2252.80;;;;;;5073959;28;20076;-86
2021/10/19 01:01:13;;;;;;;54.22;33.78;;;256.20;2252.80;;;;;;5075850;28;20023;-87
2021/10/19 01:03:39;;;;;;;52.03;31.58;;;256.10;2252.80;;;;;;5075688;28;20024;-84
2021/10/19 01:06:07;;;;;;;58.20;31.15;;;256.10;2252.80;;;;;;5075569;28;20028;-86
2021/10/19 01:08:37;;;;;;;49.50;31.90;;;256.00;2252.80;;;;;;5075838;28;20021;-86
2021/10/19 01:11:05;;;;;;;48.85;26.15;;;256.00;2252.80;;;;;;5076009;28;20028;-86
2021/10/19 01:13:34;;;;;;;52.42;31.33;;;256.00;2252.80;;;;;;5076213;28;20021;-77
2021/10/19 01:16:04;;;;;;;49.70;28.90;;;256.10;2252.80;;;;;;5057433;28;20127;-85
2021/10/19 01:18:30;;;;;;;53.92;31.92;;;256.10;2252.80;;;;;;5076115;28;20059;-84
2021/10/19 01:20:56;;;;;;;54.90;31.02;;;256.10;2252.80;;;;;;5075743;28;20021;-86
2021/10/19 01:23:22;;;;;;;56.38;32.30;;;256.10;2252.80;;;;;;5075297;28;20633;-86
2021/10/19 01:25:48;;;;;;;53.05;30.77;;;256.10;2252.80;;;;;;5075237;28;20056;-86
2021/10/19 01:28:14;;;;;;;51.15;31.88;;;256.10;2252.80;;;;;;5075552;28;20051;-86
2021/10/19 01:30:44;;;;;;;46.20;29.25;;;256.10;2252.80;;;;;;5074293;28;20036;-85
2021/10/19 01:33:11;;;;;;;45.60;29.42;;;256.10;2252.80;;;;;;5075421;28;20067;-86
2021/10/19 01:35:38;;;;;;;44.60;29.02;;;256.10;2252.80;;;;;;5075035;28;20029;-86
2021/10/19 01:38:05;;;;;;;44.55;29.67;;;256.10;2252.80;;;;;;5075139;28;20021;-86
2021/10/19 01:40:31;;;;;;;51.72;28.45;;;256.10;2252.80;;;;;;5076784;28;20070;-87
2021/10/19 01:42:58;;;;;;;52.22;31.48;;;256.00;2252.80;;;;;;5075134;28;20039;-81
2021/10/19 01:45:23;;;;;;;60.33;31.80;;;231.20;2252.80;;;;;;5075318;28;20033;-80
2021/10/19 01:47:53;;;;;;;58.92;35.45;;;256.00;2252.80;;;;;;5075221;28;20028;-76
2021/10/19 01:50:19;;;;;;;55.25;32.00;;;256.00;2252.80;;;;;;5040978;28;20054;-85
2021/10/19 01:52:46;;;;;;;55.08;31.50;;;256.00;2252.80;;;;;;5074893;28;20024;-76
2021/10/19 01:55:16;;;;;;;56.83;32.13;;;256.00;2252.80;;;;;;5074786;28;20044;-85
2021/10/19 01:57:51;;;;;;;46.42;30.80;;;231.30;2252.80;;;;;;5058882;28;20048;-77
2021/10/19 02:00:16;;;;;;;54.28;30.27;;;256.00;2252.80;;;;;;5075677;28;20020;-77
2021/10/19 02:02:43;;;;;;;45.38;26.33;;;256.00;2252.80;;;;;;5076872;28;20047;-78
2021/10/19 02:05:11;;;;;;;48.55;27.13;;;231.30;2252.80;;;;;;5079053;28;20075;-81
2021/10/19 02:07:37;;;;;;;52.75;27.40;;;231.30;2252.80;;;;;;5069117;28;20024;-76
2021/10/19 02:10:05;;;;;;;46.90;25.60;;;231.30;2252.80;;;;;;5056824;28;20036;-80
2021/10/19 02:12:31;;;;;;;40.85;22.75;;;231.30;2252.80;;;;;;5053851;28;20021;-76
2021/10/19 02:15:05;;;;;;;38.88;22.63;;;231.20;2252.80;;;;;;5053977;28;20029;-87
2021/10/19 02:17:31;;;;;;;41.00;23.40;;;231.20;2252.80;;;;;;5056990;28;20486;-77
2021/10/19 02:20:00;;;;;;;33.20;21.77;;;231.10;2252.80;;;;;;5056119;28;20036;-86
2021/10/19 02:22:29;;;;;;;39.08;24.10;;;231.10;2252.80;;;;;;5056172;28;20036;-75
2021/10/19 02:24:56;;;;;;;38.85;24.40;;;231.00;2252.80;;;;;;5073254;28;20032;-76
2021/10/19 02:27:22;;;;;;;38.60;25.42;;;231.00;2252.80;;;;;;5073698;28;20025;-77
2021/10/19 02:29:51;;;;;;;41.95;23.58;;;231.00;2252.80;;;;;;5074471;28;20031;-84
2021/10/19 02:32:23;;;;;;;44.78;27.27;;;231.00;2252.80;;;;;;5074124;28;20120;-80
2021/10/19 02:34:48;;;;;;;42.97;26.98;;;230.90;2252.80;;;;;;5056889;28;20020;-76
2021/10/19 02:37:14;;;;;;;42.22;27.95;;;230.90;2252.80;;;;;;5074179;28;20028;-84
2021/10/19 02:39:40;;;;;;;46.20;25.08;;;230.90;2252.80;;;;;;5074678;28;20028;-76
2021/10/19 02:42:06;;;;;;;48.90;26.33;;;230.80;2252.80;;;;;;5073631;28;20012;-75
2021/10/19 02:44:31;;;;;;;46.40;27.98;;;230.80;2252.80;;;;;;5073266;28;20028;-75
2021/10/19 02:46:57;;;;;;;42.13;26.83;;;230.80;2252.80;;;;;;5073003;28;20016;-76
2021/10/19 02:49:23;;;;;;;44.53;27.83;;;230.90;2252.80;;;;;;5073221;28;20032;-77
2021/10/19 02:51:48;;;;;;;39.95;24.55;;;230.90;2252.80;;;;;;5072889;28;20082;-77
2021/10/19 02:54:14;;;;;;;39.38;22.20;;;230.90;2252.80;;;;;;5072911;28;20534;-76
2021/10/19 02:56:43;;;;;;;41.05;24.75;;;230.90;2252.80;;;;;;5073124;28;20024;-76
2021/10/19 02:59:09;;;;;;;43.90;24.50;;;230.90;2252.80;;;;;;5073687;28;20025;-76
2021/10/19 03:01:34;;;;;;;39.25;23.90;;;230.90;2252.80;;;;;;5073077;28;20029;-76
2021/10/19 03:04:00;;;;;;;38.53;22.50;;;230.90;2252.80;;;;;;5073025;28;20046;-75
2021/10/19 03:06:26;;;;;;;32.50;18.83;;;230.80;2252.80;;;;;;5072464;28;20028;-76
2021/10/19 03:08:54;;;;;;;35.53;20.92;;;230.80;2252.80;;;;;;5073348;28;20461;-76
2021/10/19 03:11:20;;;;;;;36.50;21.05;;;230.90;2252.80;;;;;;5072697;28;20021;-77
2021/10/19 03:13:45;;;;;;;32.17;19.85;;;230.90;2252.80;;;;;;5073003;28;20376;-76
2021/10/19 03:16:11;;;;;;;31.77;19.95;;;230.90;2252.80;;;;;;5054824;28;20037;-79
2021/10/19 03:18:46;;;;;;;31.63;20.67;;;230.90;2252.80;;;;;;5055689;28;20075;-79
2021/10/19 03:21:16;;;;;;;31.02;19.85;;;230.80;2252.80;;;;;;5073648;28;20379;-76
2021/10/19 03:23:41;;;;;;;34.30;19.25;;;230.80;2252.80;;;;;;5073039;28;20037;-76
2021/10/19 03:26:07;;;;;;;26.75;16.75;;;230.80;2252.80;;;;;;5076351;28;20115;-76
2021/10/19 03:28:33;;;;;;;26.98;16.45;;;230.70;2252.80;;;;;;5075407;28;20032;-76
2021/10/19 03:30:59;;;;;;;27.77;18.83;;;230.80;2252.80;;;;;;5074678;28;20078;-76
2021/10/19 03:33:25;;;;;;;26.08;17.10;;;230.80;2252.80;;;;;;5059113;28;20020;-76
2021/10/19 03:35:51;;;;;;;31.00;16.33;;;230.80;2252.80;;;;;;5064271;28;20070;-76
2021/10/19 03:38:17;;;;;;;28.10;16.35;;;230.80;2252.80;;;;;;5056715;28;20490;-78
2021/10/19 03:40:42;;;;;;;32.30;18.85;;;230.80;2252.80;;;;;;5055084;28;20025;-76
2021/10/19 03:43:08;;;;;;;23.85;16.95;;;230.80;2252.80;;;;;;5056875;28;20419;-79
2021/10/19 03:45:34;;;;;;;29.70;19.42;;;230.80;2252.80;;;;;;5074339;28;20024;-76
2021/10/19 03:47:59;;;;;;;34.10;18.35;;;230.80;2252.80;;;;;;5056932;28;20110;-76
2021/10/19 03:50:25;;;;;;;31.20;20.08;;;230.80;2252.80;;;;;;5036578;28;20358;-76
2021/10/19 03:52:52;;;;;;;34.60;20.95;;;230.80;2252.80;;;;;;5036016;28;20088;-76
2021/10/19 03:55:17;;;;;;;31.95;20.08;;;230.70;2252.80;;;;;;5046263;28;20033;-76
2021/10/19 03:57:43;;;;;;;40.42;22.58;;;230.70;2252.80;;;;;;5066137;28;20051;-80
2021/10/19 04:00:09;;;;;;;35.88;21.83;;;230.70;2252.80;;;;;;5077355;28;20380;-80
2021/10/19 04:02:35;;;;;;;36.05;22.15;;;230.80;2252.80;;;;;;5076290;28;20028;-79
2021/10/19 04:05:01;;;;;;;37.72;24.35;;;230.80;2252.80;;;;;;5076834;28;20110;-79
2021/10/19 04:07:27;;;;;;;35.78;22.85;;;230.80;2252.80;;;;;;5076778;28;20025;-76
2021/10/19 04:09:52;;;;;;;33.22;20.77;;;230.80;2252.80;;;;;;5076265;28;20033;-76
2021/10/19 04:12:21;;;;;;;33.78;20.40;;;230.90;2252.80;;;;;;5076028;28;20103;-77
2021/10/19 04:14:47;;;;;;;30.52;21.05;;;230.90;2252.80;;;;;;5076901;28;20054;-77
2021/10/19 04:17:13;;;;;;;38.22;22.27;;;230.90;2252.80;;;;;;5076882;28;20035;-81
2021/10/19 04:19:38;;;;;;;32.15;21.02;;;231.00;2252.80;;;;;;5076509;28;20089;-89
2021/10/19 04:22:04;;;;;;;34.50;22.17;;;231.00;2252.80;;;;;;5076591;28;20091;-77
2021/10/19 04:24:30;;;;;;;33.88;20.52;;;231.00;2252.80;;;;;;5076398;28;20408;-84
2021/10/19 04:26:55;;;;;;;36.88;19.92;;;231.00;2252.80;;;;;;5075196;28;20017;-77
2021/10/19 04:29:21;;;;;;;38.70;20.67;;;231.00;2252.80;;;;;;5076795;28;20035;-84
2021/10/19 04:31:47;;;;;;;34.63;20.98;;;231.00;2252.80;;;;;;5047915;28;20063;-79
2021/10/19 04:34:13;;;;;;;37.97;22.23;;;231.10;2252.80;;;;;;5045616;28;20029;-85
2021/10/19 04:36:38;;;;;;;34.05;20.38;;;231.00;2252.80;;;;;;5055692;28;20027;-80
2021/10/19 04:39:04;;;;;;;41.63;24.33;;;231.10;2252.80;;;;;;5056950;28;20104;-77
2021/10/19 04:41:30;;;;;;;53.08;31.45;;;231.10;2252.80;;;;;;5055043;28;20036;-76
2021/10/19 04:43:56;;;;;;;68.15;40.17;;;231.00;2252.80;;;;;;5056264;28;20040;-77
2021/10/19 04:46:21;;;;;;;66.25;37.63;;;230.90;2252.80;;;;;;5055275;28;20028;-76
2021/10/19 04:48:47;;;;;;;67.68;35.83;;;230.90;2252.80;;;;;;5037488;28;20496;-76
2021/10/19 04:51:13;;;;;;;60.20;34.55;;;230.90;2252.80;;;;;;5052631;28;20154;-77
2021/10/19 04:53:39;;;;;;;59.53;34.38;;;230.90;2252.80;;;;;;5036924;28;20374;-77
2021/10/19 04:56:09;;;;;;;62.58;32.20;;;230.90;2252.80;;;;;;5054884;28;20494;-76
2021/10/19 04:58:35;;;;;;;52.05;30.05;;;230.80;2252.80;;;;;;5037251;28;20049;-76
2021/10/19 05:01:00;;;;;;;59.75;30.75;;;230.80;2252.80;;;;;;5055178;28;20029;-76
2021/10/19 05:03:26;;;;;;;60.20;30.17;;;230.70;2252.80;;;;;;5036700;28;20061;-76
2021/10/19 05:05:52;;;;;;;46.60;28.40;;;230.50;2252.80;;;;;;5055166;28;20036;-76
2021/10/19 05:08:18;;;;;;;50.58;28.50;;;230.40;2252.80;;;;;;5055945;28;20028;-76
2021/10/19 05:10:44;;;;;;;51.60;28.80;;;205.70;2252.80;;;;;;5052127;28;20526;-76
2021/10/19 05:13:10;;;;;;;41.33;26.88;;;205.70;2252.80;;;;;;5054929;28;20047;-76
2021/10/19 05:15:36;;;;;;;38.10;23.42;;;205.60;2252.80;;;;;;5054677;28;20496;-77
2021/10/19 05:18:02;;;;;;;46.67;26.35;;;205.60;2252.80;;;;;;5071288;28;20052;-77
2021/10/19 05:20:28;;;;;;;79.47;37.83;;;205.60;2252.80;;;;;;5056948;28;20130;-77
2021/10/19 05:22:54;;;;;;;49.30;29.63;;;205.60;2252.80;;;;;;5074737;28;20032;-77
2021/10/19 05:25:20;;;;;;;55.92;30.00;;;205.60;2252.80;;;;;;5074443;28;20037;-77
2021/10/19 05:27:45;;;;;;;50.63;31.38;;;205.60;2252.80;;;;;;5074641;28;20035;-77
2021/10/19 05:30:12;;;;;;;56.38;33.40;;;205.60;2252.80;;;;;;5074416;28;20358;-77
2021/10/19 05:32:38;;;;;;;51.60;32.13;;;205.70;2252.80;;;;;;5057127;28;20108;-76
2021/10/19 05:35:05;;;;;;;59.88;37.28;;;230.40;2252.80;;;;;;5075609;28;20037;-77
2021/10/19 05:37:31;;;;;;;55.58;31.30;;;230.40;2252.80;;;;;;5075428;28;20021;-77
2021/10/19 05:40:00;;;;;;;48.67;30.77;;;230.40;2252.80;;;;;;5057032;28;20111;-77
2021/10/19 05:42:26;;;;;;;63.70;34.53;;;230.50;2252.80;;;;;;5074439;28;20032;-77
2021/10/19 05:44:52;;;;;;;69.55;36.90;;;230.50;2252.80;;;;;;5074720;28;20032;-76
2021/10/19 05:47:18;;;;;;;67.40;39.05;;;230.60;2252.80;;;;;;5055791;28;20364;-77
2021/10/19 05:49:44;;;;;;;112.68;52.35;;;230.70;2252.80;;;;;;5074284;28;20039;-76
2021/10/19 05:52:13;;;;;;;136.73;53.97;;;230.80;2252.80;;;;;;5075459;28;20025;-76
2021/10/19 05:54:39;;;;;;;63.58;37.10;;;230.80;2252.80;;;;;;5076110;28;20028;-76
2021/10/19 05:57:05;;;;;;;51.05;30.70;;;231.00;2252.80;;;;;;5057066;28;20070;-77
2021/10/19 05:59:30;;;;;;;56.55;28.70;;;231.00;2252.80;;;;;;5057380;28;20044;-77
2021/10/19 06:01:59;;;;;;;53.17;28.83;;;231.10;2252.80;;;;;;5074468;28;20029;-76
2021/10/19 06:04:27;;;;;;;75.70;43.45;;;231.10;2252.80;;;;;;5075103;28;20083;-75
2021/10/19 06:06:59;;;;;;;165.48;83.65;;;231.20;2252.80;;;;;;5074240;28;20054;-77
2021/10/19 06:09:26;;;;;;;147.13;75.88;;;231.20;2252.80;;;;;;5074692;28;20028;-77
2021/10/19 06:11:55;;;;;;;249.15;122.72;;;256.10;2252.80;;;;;;5056402;28;20032;-77
2021/10/19 06:14:23;;;;;;;188.10;103.07;;;231.30;2252.80;;;;;;5074239;28;20024;-77
2021/10/19 06:16:49;;;;;;;83.93;49.78;;;256.00;2252.80;;;;;;5055963;28;20032;-77
2021/10/19 06:19:15;;;;;;;72.15;43.83;;;256.00;2252.80;;;;;;5074744;28;20035;-78
2021/10/19 06:21:42;;;;;;;71.47;42.65;;;256.10;2252.80;;;;;;5073987;28;20013;-75
2021/10/19 06:24:08;;;;;;;76.15;44.53;;;256.00;2252.80;;;;;;5073686;28;20051;-77
2021/10/19 06:26:35;;;;;;;85.10;48.90;;;256.00;2252.80;;;;;;5073873;28;20358;-75
2021/10/19 06:29:06;;;;;;;71.47;45.80;;;256.10;2252.80;;;;;;5074737;28;20021;-77
2021/10/19 06:31:35;;;;;;;56.00;35.30;;;256.10;2252.80;;;;;;5074833;28;20025;-77
2021/10/19 06:34:03;;;;;;;50.20;30.80;;;256.20;2252.80;;;;;;5075961;28;20095;-78
2021/10/19 06:36:28;;;;;;;90.78;50.63;;;256.30;2252.80;;;;;;5075790;28;20094;-77
2021/10/19 06:38:55;;;;;;;88.55;51.92;;;256.30;2252.80;;;;;;5075693;28;20021;-77
2021/10/19 06:41:21;;;;;;;62.85;37.92;;;256.30;2252.80;;;;;;5074294;28;20059;-77
2021/10/19 06:43:47;;;;;;;59.63;35.30;;;256.40;2252.80;;;;;;5074801;28;20028;-78
2021/10/19 06:46:13;;;;;;;69.45;38.30;;;256.40;2252.80;;;;;;5073471;28;20031;-77
2021/10/19 06:48:39;;;;;;;64.07;35.67;;;256.50;2252.80;;;;;;5072782;28;20024;-77
2021/10/19 06:51:05;;;;;;;67.28;39.35;;;256.50;2252.80;;;;;;5073124;28;20480;-77
2021/10/19 06:53:32;;;;;;;75.90;41.17;;;256.60;2252.80;;;;;;5054812;28;20066;-77
2021/10/19 06:55:58;;;;;;;70.30;39.67;;;256.80;2252.80;;;;;;5073037;28;20105;-77
2021/10/19 06:58:25;;;;;;;83.35;47.00;;;256.70;2252.80;;;;;;5072948;28;20048;-77
2021/10/19 07:00:52;;;;;;;72.53;43.92;;;256.80;2252.80;;;;;;5054879;28;20054;-76
2021/10/19 07:03:17;;;;;;;181.63;134.32;;;256.90;2252.80;;;;;;5073426;28;20031;-79
2021/10/19 07:05:43;;;;;;;133.00;84.93;;;256.90;2252.80;;;;;;5073519;28;20024;-77
2021/10/19 07:08:09;;;;;;;125.75;69.40;;;256.90;2252.80;;;;;;5074003;28;20036;-77
2021/10/19 07:10:36;;;;;;;131.15;79.72;;;256.90;2252.80;;;;;;5057972;28;20047;-77
2021/10/19 07:13:03;;;;;;;116.93;75.68;;;281.60;2278.40;;;;;;5056872;28;20028;-76
2021/10/19 07:15:34;;;;;;;86.22;52.63;;;281.60;2278.40;;;;;;5074885;28;20341;-77
2021/10/19 07:18:06;;;;;;;129.65;68.72;;;281.70;2278.40;;;;;;5055315;28;20032;-76
2021/10/19 07:20:33;;;;;;;116.65;65.07;;;281.70;2278.40;;;;;;5073693;28;20460;-77
2021/10/19 07:23:00;;;;;;;91.43;53.15;;;281.70;2278.40;;;;;;5074183;28;20396;-78
2021/10/19 07:25:27;;;;;;;82.13;49.45;;;281.80;2278.40;;;;;;5066779;28;20040;-75
2021/10/19 07:27:53;;;;;;;77.90;46.08;;;281.90;2278.40;;;;;;5053969;28;20393;-76
2021/10/19 07:30:19;;;;;;;81.00;50.00;;;282.00;2278.40;;;;;;5053393;28;20028;-77
2021/10/19 07:32:45;;;;;;;92.80;55.95;;;282.10;2278.40;;;;;;5053112;28;20072;-76
2021/10/19 07:35:12;;;;;;;83.93;53.05;;;282.20;2278.40;;;;;;5054830;28;20025;-76
2021/10/19 07:37:41;;;;;;;84.05;53.38;;;282.30;2278.40;;;;;;5053195;28;20419;-76
2021/10/19 07:40:12;;;;;;;89.05;53.20;;;282.50;2278.40;;;;;;5036149;28;20029;-77
2021/10/19 07:42:38;;;;;;;89.00;54.70;;;282.50;2278.40;;;;;;5035062;28;20025;-77
2021/10/19 07:45:06;;;;;;;86.53;53.17;;;307.30;2304.00;;;;;;5053246;28;20068;-77
2021/10/19 07:47:33;;;;;;;94.25;55.15;;;307.30;2304.00;;;;;;5053019;28;20093;-77
2021/10/19 07:49:59;;;;;;;91.82;58.97;;;307.40;2304.00;;;;;;5035070;28;20033;-77
2021/10/19 07:52:25;;;;;;;86.00;54.65;;;307.50;2304.00;;;;;;5051982;28;20021;-76
2021/10/19 07:54:53;;;;;;;78.45;46.58;;;307.60;2304.00;;;;;;5052627;28;20094;-78
2021/10/19 07:57:28;;;;;;;75.75;51.47;;;307.60;2304.00;;;;;;5052410;28;20400;-78
2021/10/19 07:59:53;;;;;;;86.53;51.33;;;307.70;2304.00;;;;;;5034656;28;20133;-76
2021/10/19 08:02:19;;;;;;;69.28;47.08;;;307.90;2304.00;;;;;;5035131;28;20473;-79
2021/10/19 08:04:45;;;;;;;85.68;47.38;;;308.10;2304.00;;;;;;5035524;28;20179;-77
2021/10/19 08:07:11;;;;;;;70.30;43.10;;;332.90;2329.60;;;;;;5052504;28;20380;-78
2021/10/19 08:09:38;;;;;;;59.70;39.20;;;333.10;2329.60;;;;;;5055897;28;20469;-77
2021/10/19 08:12:04;;;;;;;59.92;34.10;;;333.30;2329.60;;;;;;5041646;28;20090;-77
2021/10/19 08:14:30;;;;;;;55.92;32.97;;;333.50;2329.60;;;;;;5047457;28;20025;-77
2021/10/19 08:16:56;;;;;;;57.28;35.42;;;333.70;2329.60;;;;;;5061746;28;20469;-79
2021/10/19 08:19:27;;;;;;;54.80;32.10;;;358.40;2329.60;;;;;;5047730;28;20469;-78
2021/10/19 08:21:53;;;;;;;43.65;28.58;;;358.70;2329.60;;;;;;5040859;28;20017;-77
2021/10/19 08:24:18;;;;;;;39.08;25.67;;;358.90;2329.60;;;;;;5055639;28;20045;-78
2021/10/19 08:26:44;;;;;;;32.58;22.23;;;359.10;2329.60;;;;;;5037671;28;20025;-78
2021/10/19 08:29:10;;;;;;;36.70;24.60;;;359.30;2329.60;;;;;;5055952;28;20091;-78
2021/10/19 08:31:36;;;;;;;40.75;24.50;;;384.10;2329.60;;;;;;5037767;28;20549;-79
2021/10/19 08:34:01;;;;;;;37.58;23.88;;;384.20;2329.60;;;;;;5055726;28;20028;-78
2021/10/19 08:36:27;;;;;;;42.28;24.15;;;384.40;2329.60;;;;;;5055811;28;20017;-79
2021/10/19 08:38:53;;;;;;;26.98;17.60;;;384.50;2304.00;;;;;;5055320;28;20033;-77
2021/10/19 08:41:20;;;;;;;26.23;16.88;;;384.50;2252.80;;;;;;5054853;28;20054;-79
2021/10/19 08:43:47;;;;;;;26.05;16.05;;;384.60;2227.20;;;;;;5055506;28;20493;-79
2021/10/19 08:46:14;;;;;;;26.35;16.90;;;384.60;2252.80;;;;;;5037835;28;20477;-79
2021/10/19 08:48:41;;;;;;;22.58;14.80;;;384.80;2304.00;;;;;;5055453;28;20481;-79
2021/10/19 08:51:08;;;;;;;22.50;14.30;;;384.80;2227.20;;;;;;5055530;28;20021;-78
2021/10/19 08:53:41;;;;;;;19.77;14.38;;;384.90;2227.20;;;;;;5055328;28;20040;-79
2021/10/19 08:56:08;;;;;;;21.05;14.25;;;409.70;2304.00;;;;;;5037557;28;20075;-79
2021/10/19 08:58:35;;;;;;;27.35;18.38;;;409.80;2150.40;;;;;;5055060;28;20056;-79
2021/10/19 09:01:06;;;;;;;20.38;13.13;;;409.90;2124.80;;;;;;5037873;28;20045;-78
2021/10/19 09:03:32;;;;;;;22.88;14.20;;;410.10;2073.60;;;;;;5055129;28;20056;-78
2021/10/19 09:05:58;;;;;;;17.85;13.68;;;410.30;2073.60;;;;;;5055313;28;20440;-78
2021/10/19 09:08:25;;;;;;;18.17;14.00;;;410.50;2022.40;;;;;;5036964;28;20025;-76
2021/10/19 09:10:52;;;;;;;18.75;13.55;;;435.20;1996.80;;;;;;5054839;28;20028;-78
2021/10/19 09:13:18;;;;;;;18.98;13.57;;;435.30;1996.80;;;;;;5054720;28;20021;-78
2021/10/19 09:15:47;;;;;;;17.95;12.13;;;435.30;2022.40;;;;;;5055321;28;20122;-80
2021/10/19 09:18:18;;;;;;;17.92;12.63;;;435.60;1920.00;;;;;;5054748;28;20112;-79
2021/10/19 09:20:50;;;;;;;19.10;11.98;;;435.70;1945.60;;;;;;5037049;28;20484;-78
2021/10/19 09:23:21;;;;;;;17.40;12.00;;;435.90;1945.60;;;;;;5035330;28;20037;-79
2021/10/19 09:25:48;;;;;;;16.92;12.35;;;436.10;1894.40;;;;;;5036821;28;20045;-79
2021/10/19 09:28:29;;;;;;;18.40;12.20;;;461.00;1920.00;;;;;;5054514;28;20535;-79
2021/10/19 09:30:57;;;;;;;19.42;11.90;;;461.30;1920.00;;;;;;5036126;28;20037;-79
2021/10/19 09:33:22;;;;;;;17.95;12.60;;;461.50;1868.80;;;;;;5036599;28;20025;-79
2021/10/19 09:35:51;;;;;;;18.52;11.73;;;461.70;1868.80;;;;;;5054735;28;20070;-80
2021/10/19 09:38:17;;;;;;;17.17;11.57;;;486.50;1792.00;;;;;;5054367;28;20044;-83
2021/10/19 09:40:52;;;;;;;16.52;12.70;;;486.70;1792.00;;;;;;5054493;28;20033;-79
2021/10/19 09:43:23;;;;;;;18.58;11.25;;;486.80;1740.80;;;;;;5054465;28;20021;-78
2021/10/19 09:45:53;;;;;;;15.73;11.63;;;487.00;1715.20;;;;;;5017950;28;20034;-77
2021/10/19 09:48:27;;;;;;;19.48;12.35;;;487.10;1689.60;;;;;;5034366;28;20095;-78
2021/10/19 09:50:54;;;;;;;18.20;11.90;;;487.30;1766.40;;;;;;5016638;28;20108;-78
2021/10/19 09:53:22;;;;;;;15.68;11.80;;;512.10;1664.00;;;;;;5016327;28;20033;-80
2021/10/19 09:55:52;;;;;;;20.17;12.50;;;512.20;1664.00;;;;;;5016562;28;20037;-79
2021/10/19 09:58:19;;;;;;;17.52;12.50;;;512.40;1664.00;;;;;;5034275;28;20037;-79
2021/10/19 10:00:46;;;;;;;20.85;13.35;;;512.50;1638.40;;;;;;5016086;28;20036;-79
2021/10/19 10:03:12;;;;;;;18.08;12.57;;;512.90;1638.40;;;;;;5016502;28;20029;-79
2021/10/19 10:05:39;;;;;;;25.85;17.42;;;537.60;1612.80;;;;;;5033889;28;20088;-79
2021/10/19 10:08:08;;;;;;;19.38;14.27;;;512.90;1587.20;;;;;;5033878;28;20083;-79
2021/10/19 10:10:34;;;;;;;17.35;12.65;;;512.90;1561.60;;;;;;5033792;28;20025;-79
2021/10/19 10:13:01;;;;;;;18.00;12.90;;;512.70;1536.00;;;;;;5016077;28;20496;-79
2021/10/19 10:15:33;;;;;;;18.23;12.38;;;512.70;1510.40;;;;;;5015863;28;20041;-79
2021/10/19 10:18:04;;;;;;;20.67;12.65;;;512.60;1536.00;;;;;;5033955;28;20470;-78
2021/10/19 10:20:38;;;;;;;19.90;15.40;;;512.40;1536.00;;;;;;5033692;28;20033;-78
2021/10/19 10:23:22;;;;;;;23.85;16.02;;;512.60;1536.00;;;;;;5033564;28;20021;-79
2021/10/19 10:25:54;;;;;;;15.80;12.23;;;512.70;1561.60;;;;;;5015672;28;20053;-78
2021/10/19 10:28:33;;;;;;;17.73;12.43;;;512.70;1510.40;;;;;;5033886;28;20021;-78
2021/10/19 10:31:07;;;;;;;22.35;15.45;;;512.80;1536.00;;;;;;5015970;28;20029;-78
2021/10/19 10:33:35;;;;;;;20.63;14.23;;;537.70;1638.40;;;;;;5032534;28;20042;-78
2021/10/19 10:36:13;;;;;;;20.90;14.32;;;537.90;1638.40;;;;;;5033700;28;20445;-80
2021/10/19 10:38:56;;;;;;;20.05;13.20;;;538.10;1587.20;;;;;;5033015;28;20021;-78
2021/10/19 10:41:22;;;;;;;15.70;11.07;;;538.40;1536.00;;;;;;5033384;28;20017;-77
2021/10/19 10:43:59;;;;;;;17.27;12.25;;;563.20;1587.20;;;;;;5033167;28;20428;-79
2021/10/19 10:46:25;;;;;;;17.25;12.50;;;563.30;1587.20;;;;;;5015857;28;20037;-77
2021/10/19 10:48:54;;;;;;;16.55;12.63;;;563.20;1561.60;;;;;;5033341;28;20017;-79
2021/10/19 10:51:33;;;;;;;14.85;11.82;;;563.20;1510.40;;;;;;5015723;28;20029;-78
2021/10/19 10:53:59;;;;;;;24.38;17.70;;;538.40;1484.80;;;;;;5015285;28;20052;-78
2021/10/19 10:56:26;;;;;;;34.47;23.35;;;538.30;1536.00;;;;;;5033405;28;20060;-78
2021/10/19 10:58:52;;;;;;;22.17;16.23;;;538.20;1561.60;;;;;;5032973;28;20045;-78
2021/10/19 11:01:28;;;;;;;44.80;28.05;;;538.10;1536.00;;;;;;5033314;28;20129;-79
2021/10/19 11:04:09;;;;;;;33.38;22.27;;;538.00;1510.40;;;;;;5030847;28;20056;-80
2021/10/19 11:06:38;;;;;;;16.35;12.18;;;538.30;1587.20;;;;;;5015609;28;20088;-79
2021/10/19 11:09:15;;;;;;;18.13;11.30;;;538.30;1510.40;;;;;;5033810;28;20029;-78
2021/10/19 11:11:46;;;;;;;14.93;11.18;;;538.30;1510.40;;;;;;5032761;28;20026;-79
2021/10/19 11:14:14;;;;;;;24.38;14.55;;;538.40;1536.00;;;;;;5015459;28;20381;-80
2021/10/19 11:16:49;;;;;;;16.90;10.95;;;538.50;1561.60;;;;;;5014760;28;20033;-81
2021/10/19 11:19:22;;;;;;;16.15;12.05;;;563.20;1510.40;;;;;;5015340;28;20021;-79
2021/10/19 11:21:51;;;;;;;16.67;12.90;;;563.40;1484.80;;;;;;5032859;28;20060;-79
2021/10/19 11:24:18;;;;;;;16.73;11.02;;;563.50;1510.40;;;;;;5014804;28;20056;-79
2021/10/19 11:26:45;;;;;;;18.15;11.40;;;563.60;1484.80;;;;;;5032608;28;20512;-78
2021/10/19 11:29:11;;;;;;;15.45;11.77;;;563.70;1484.80;;;;;;5030391;28;20055;-79
2021/10/19 11:31:39;;;;;;;16.30;12.05;;;563.90;1459.20;;;;;;5032823;28;20108;-83
2021/10/19 11:34:07;;;;;;;16.00;10.57;;;563.80;1459.20;;;;;;5015110;28;20038;-78
2021/10/19 11:36:33;;;;;;;16.55;11.60;;;563.70;1459.20;;;;;;5014802;28;20017;-79
2021/10/19 11:39:01;;;;;;;14.00;10.50;;;563.70;1459.20;;;;;;5032628;28;20056;-79
2021/10/19 11:41:31;;;;;;;13.10;10.50;;;563.60;1408.00;;;;;;5014773;28;20026;-77
2021/10/19 11:44:03;;;;;;;15.30;10.90;;;563.30;1408.00;;;;;;5014737;28;20029;-83
2021/10/19 11:46:32;;;;;;;14.88;10.27;;;563.20;1433.60;;;;;;5034725;28;20545;-79
2021/10/19 11:49:04;;;;;;;21.08;13.65;;;538.40;1408.00;;;;;;5036733;28;20079;-77
2021/10/19 11:51:31;;;;;;;15.50;10.63;;;538.20;1408.00;;;;;;5036305;28;20025;-78
2021/10/19 11:53:59;;;;;;;17.63;12.48;;;537.80;1459.20;;;;;;5036241;28;20278;-79
2021/10/19 11:56:26;;;;;;;13.90;11.68;;;537.70;1484.80;;;;;;5036051;28;20172;-80
2021/10/19 11:58:56;;;;;;;27.80;16.45;;;537.60;1484.80;;;;;;5018215;28;20505;-79